sensor_id;sensor_type;location;lat;lon;timestamp;P1;durP1;ratioP1;P2;durP2;ratioP2
17842;SDS011;69286;48.222;16.332;2024-03-23T00:54:42;6.70;;;4.80;;
17842;SDS011;69286;48.222;16.332;2024-03-23T00:57:09;7.83;;;5.10;;
17842;SDS011;69286;48.222;16.332;2024-03-23T00:59:35;11.10;;;5.30;;
17842;SDS011;69286;48.222;16.332;2024-03-23T01:02:02;7.50;;;5.33;;
17842;SDS011;69286;48.222;16.332;2024-03-23T01:04:28;5.23;;;4.60;;
17842;SDS011;69286;48.222;16.332;2024-03-23T01:06:55;7.37;;;4.90;;
17842;SDS011;69286;48.222;16.332;2024-03-23T01:09:21;10.07;;;4.73;;
17842;SDS011;69286;48.222;16.332;2024-03-23T01:11:50;8.07;;;5.20;;
17842;SDS011;69286;48.222;16.332;2024-03-23T01:14:16;6.20;;;4.50;;
17842;SDS011;69286;48.222;16.332;2024-03-23T01:16:43;8.97;;;5.00;;
17842;SDS011;69286;48.222;16.332;2024-03-23T01:19:09;7.90;;;5.03;;
17842;SDS011;69286;48.222;16.332;2024-03-23T01:21:36;5.60;;;4.70;;
17842;SDS011;69286;48.222;16.332;2024-03-23T01:24:02;7.20;;;5.00;;
17842;SDS011;69286;48.222;16.332;2024-03-23T01:26:29;6.27;;;5.07;;
17842;SDS011;69286;48.222;16.332;2024-03-23T01:28:56;8.53;;;5.27;;
17842;SDS011;69286;48.222;16.332;2024-03-23T01:31:23;7.40;;;5.63;;
17842;SDS011;69286;48.222;16.332;2024-03-23T01:33:49;7.37;;;5.07;;
17842;SDS011;69286;48.222;16.332;2024-03-23T01:36:16;8.17;;;5.60;;
17842;SDS011;69286;48.222;16.332;2024-03-23T01:38:43;10.30;;;5.37;;
17842;SDS011;69286;48.222;16.332;2024-03-23T01:41:10;6.07;;;4.80;;
17842;SDS011;69286;48.222;16.332;2024-03-23T01:43:36;6.07;;;4.93;;
17842;SDS011;69286;48.222;16.332;2024-03-23T01:46:04;7.37;;;5.03;;
17842;SDS011;69286;48.222;16.332;2024-03-23T01:48:30;6.33;;;4.83;;
17842;SDS011;69286;48.222;16.332;2024-03-23T01:50:57;7.57;;;4.80;;
17842;SDS011;69286;48.222;16.332;2024-03-23T01:53:24;7.40;;;5.10;;
17842;SDS011;69286;48.222;16.332;2024-03-23T01:55:51;8.27;;;5.30;;
17842;SDS011;69286;48.222;16.332;2024-03-23T01:58:17;7.57;;;5.00;;
17842;SDS011;69286;48.222;16.332;2024-03-23T02:00:44;7.20;;;5.10;;
17842;SDS011;69286;48.222;16.332;2024-03-23T02:05:57;10.27;;;5.70;;
17842;SDS011;69286;48.222;16.332;2024-03-23T02:08:23;9.27;;;5.13;;
17842;SDS011;69286;48.222;16.332;2024-03-23T02:10:50;13.83;;;5.27;;
17842;SDS011;69286;48.222;16.332;2024-03-23T02:13:17;6.83;;;4.97;;
17842;SDS011;69286;48.222;16.332;2024-03-23T02:15:45;7.93;;;4.90;;
17842;SDS011;69286;48.222;16.332;2024-03-23T02:18:11;7.93;;;4.90;;
17842;SDS011;69286;48.222;16.332;2024-03-23T02:20:39;6.13;;;4.70;;
17842;SDS011;69286;48.222;16.332;2024-03-23T02:23:10;7.83;;;4.97;;
17842;SDS011;69286;48.222;16.332;2024-03-23T02:25:39;7.00;;;5.13;;
17842;SDS011;69286;48.222;16.332;2024-03-23T02:28:05;7.73;;;4.93;;
17842;SDS011;69286;48.222;16.332;2024-03-23T02:30:32;11.43;;;5.57;;
17842;SDS011;69286;48.222;16.332;2024-03-23T02:32:58;11.03;;;5.33;;
17842;SDS011;69286;48.222;16.332;2024-03-23T02:35:25;9.27;;;5.03;;
17842;SDS011;69286;48.222;16.332;2024-03-23T02:37:51;8.60;;;5.10;;
17842;SDS011;69286;48.222;16.332;2024-03-23T02:40:20;6.07;;;4.57;;
17842;SDS011;69286;48.222;16.332;2024-03-23T02:42:47;9.33;;;5.53;;
17842;SDS011;69286;48.222;16.332;2024-03-23T02:45:14;10.70;;;5.57;;
17842;SDS011;69286;48.222;16.332;2024-03-23T02:47:40;8.13;;;5.40;;
17842;SDS011;69286;48.222;16.332;2024-03-23T02:50:08;8.50;;;5.40;;
17842;SDS011;69286;48.222;16.332;2024-03-23T02:52:34;8.53;;;5.27;;
17842;SDS011;69286;48.222;16.332;2024-03-23T02:55:01;10.17;;;5.87;;
17842;SDS011;69286;48.222;16.332;2024-03-23T02:57:29;6.90;;;4.90;;
17842;SDS011;69286;48.222;16.332;2024-03-23T02:59:56;7.43;;;5.53;;
17842;SDS011;69286;48.222;16.332;2024-03-23T03:02:22;6.97;;;5.37;;
17842;SDS011;69286;48.222;16.332;2024-03-23T03:04:49;9.67;;;5.47;;
17842;SDS011;69286;48.222;16.332;2024-03-23T03:07:15;8.30;;;5.37;;
17842;SDS011;69286;48.222;16.332;2024-03-23T03:09:43;9.70;;;4.90;;
17842;SDS011;69286;48.222;16.332;2024-03-23T03:12:09;10.53;;;5.17;;
17842;SDS011;69286;48.222;16.332;2024-03-23T03:14:37;8.77;;;5.37;;
17842;SDS011;69286;48.222;16.332;2024-03-23T03:17:03;9.00;;;4.73;;
17842;SDS011;69286;48.222;16.332;2024-03-23T03:19:30;6.13;;;4.50;;
17842;SDS011;69286;48.222;16.332;2024-03-23T03:21:56;6.47;;;4.67;;
17842;SDS011;69286;48.222;16.332;2024-03-23T03:24:23;10.27;;;4.80;;
17842;SDS011;69286;48.222;16.332;2024-03-23T03:26:49;6.47;;;4.70;;
17842;SDS011;69286;48.222;16.332;2024-03-23T03:29:16;6.70;;;4.50;;
17842;SDS011;69286;48.222;16.332;2024-03-23T03:31:43;8.60;;;4.63;;
17842;SDS011;69286;48.222;16.332;2024-03-23T03:34:11;8.07;;;4.90;;
17842;SDS011;69286;48.222;16.332;2024-03-23T03:36:37;5.93;;;4.63;;
17842;SDS011;69286;48.222;16.332;2024-03-23T03:39:04;8.37;;;4.70;;
17842;SDS011;69286;48.222;16.332;2024-03-23T03:41:30;7.17;;;5.00;;
17842;SDS011;69286;48.222;16.332;2024-03-23T03:43:58;6.10;;;5.00;;
17842;SDS011;69286;48.222;16.332;2024-03-23T03:46:27;7.30;;;4.63;;
17842;SDS011;69286;48.222;16.332;2024-03-23T03:48:55;7.60;;;4.77;;
17842;SDS011;69286;48.222;16.332;2024-03-23T03:51:21;6.73;;;4.70;;
17842;SDS011;69286;48.222;16.332;2024-03-23T03:53:48;6.77;;;5.00;;
17842;SDS011;69286;48.222;16.332;2024-03-23T03:56:14;7.17;;;5.17;;
17842;SDS011;69286;48.222;16.332;2024-03-23T03:58:41;6.33;;;4.77;;
17842;SDS011;69286;48.222;16.332;2024-03-23T04:01:07;6.03;;;4.70;;
17842;SDS011;69286;48.222;16.332;2024-03-23T04:03:34;6.23;;;5.00;;
17842;SDS011;69286;48.222;16.332;2024-03-23T04:06:02;6.30;;;4.90;;
17842;SDS011;69286;48.222;16.332;2024-03-23T04:08:29;8.67;;;5.27;;
17842;SDS011;69286;48.222;16.332;2024-03-23T04:10:55;8.90;;;5.10;;
17842;SDS011;69286;48.222;16.332;2024-03-23T04:13:22;6.97;;;4.70;;
17842;SDS011;69286;48.222;16.332;2024-03-23T04:15:48;6.73;;;4.60;;
17842;SDS011;69286;48.222;16.332;2024-03-23T04:18:15;5.67;;;4.43;;
17842;SDS011;69286;48.222;16.332;2024-03-23T04:20:41;6.27;;;5.07;;
17842;SDS011;69286;48.222;16.332;2024-03-23T04:23:09;6.80;;;5.17;;
17842;SDS011;69286;48.222;16.332;2024-03-23T04:25:35;7.53;;;4.90;;
17842;SDS011;69286;48.222;16.332;2024-03-23T04:28:02;7.73;;;5.00;;
17842;SDS011;69286;48.222;16.332;2024-03-23T04:30:29;9.13;;;5.13;;
17842;SDS011;69286;48.222;16.332;2024-03-23T04:32:57;7.80;;;4.47;;
17842;SDS011;69286;48.222;16.332;2024-03-23T04:35:23;9.97;;;5.00;;
17842;SDS011;69286;48.222;16.332;2024-03-23T04:37:51;5.93;;;4.40;;
17842;SDS011;69286;48.222;16.332;2024-03-23T04:40:22;8.80;;;4.73;;
17842;SDS011;69286;48.222;16.332;2024-03-23T04:42:49;6.57;;;4.07;;
17842;SDS011;69286;48.222;16.332;2024-03-23T04:45:16;6.83;;;4.80;;
17842;SDS011;69286;48.222;16.332;2024-03-23T04:47:43;7.93;;;4.93;;
17842;SDS011;69286;48.222;16.332;2024-03-23T04:50:10;5.20;;;4.47;;
17842;SDS011;69286;48.222;16.332;2024-03-23T04:52:37;8.00;;;4.67;;
17842;SDS011;69286;48.222;16.332;2024-03-23T04:55:05;6.57;;;4.60;;
17842;SDS011;69286;48.222;16.332;2024-03-23T04:57:34;8.03;;;4.67;;
17842;SDS011;69286;48.222;16.332;2024-03-23T05:00:00;6.30;;;4.80;;
17842;SDS011;69286;48.222;16.332;2024-03-23T05:02:28;7.57;;;4.43;;
17842;SDS011;69286;48.222;16.332;2024-03-23T05:04:55;7.17;;;4.80;;
17842;SDS011;69286;48.222;16.332;2024-03-23T05:07:20;6.57;;;4.60;;
17842;SDS011;69286;48.222;16.332;2024-03-23T05:09:48;10.40;;;5.13;;
17842;SDS011;69286;48.222;16.332;2024-03-23T05:12:14;7.23;;;4.93;;
17842;SDS011;69286;48.222;16.332;2024-03-23T05:14:42;5.17;;;4.53;;
17842;SDS011;69286;48.222;16.332;2024-03-23T05:17:08;8.83;;;4.83;;
17842;SDS011;69286;48.222;16.332;2024-03-23T05:19:35;7.30;;;5.13;;
17842;SDS011;69286;48.222;16.332;2024-03-23T05:22:01;7.30;;;4.77;;
17842;SDS011;69286;48.222;16.332;2024-03-23T05:24:28;6.53;;;4.70;;
17842;SDS011;69286;48.222;16.332;2024-03-23T05:26:54;6.20;;;4.87;;
17842;SDS011;69286;48.222;16.332;2024-03-23T05:29:23;14.30;;;5.00;;
17842;SDS011;69286;48.222;16.332;2024-03-23T05:31:51;13.17;;;4.90;;
17842;SDS011;69286;48.222;16.332;2024-03-23T05:34:21;5.93;;;4.77;;
17842;SDS011;69286;48.222;16.332;2024-03-23T05:36:47;5.63;;;4.50;;
17842;SDS011;69286;48.222;16.332;2024-03-23T05:39:14;7.00;;;4.63;;
17842;SDS011;69286;48.222;16.332;2024-03-23T05:41:41;6.40;;;4.97;;
17842;SDS011;69286;48.222;16.332;2024-03-23T05:44:09;6.43;;;4.40;;
17842;SDS011;69286;48.222;16.332;2024-03-23T05:46:35;5.77;;;4.67;;
17842;SDS011;69286;48.222;16.332;2024-03-23T05:49:04;5.97;;;4.03;;
17842;SDS011;69286;48.222;16.332;2024-03-23T05:51:30;6.10;;;4.70;;
17842;SDS011;69286;48.222;16.332;2024-03-23T05:53:57;7.43;;;4.50;;
17842;SDS011;69286;48.222;16.332;2024-03-23T05:56:23;6.30;;;5.00;;
17842;SDS011;69286;48.222;16.332;2024-03-23T05:58:51;9.70;;;5.17;;
17842;SDS011;69286;48.222;16.332;2024-03-23T06:01:17;9.17;;;4.87;;
17842;SDS011;69286;48.222;16.332;2024-03-23T06:03:44;12.93;;;5.83;;
17842;SDS011;69286;48.222;16.332;2024-03-23T06:06:12;10.00;;;5.70;;
17842;SDS011;69286;48.222;16.332;2024-03-23T06:08:39;16.37;;;6.97;;
17842;SDS011;69286;48.222;16.332;2024-03-23T06:11:05;11.33;;;6.97;;
17842;SDS011;69286;48.222;16.332;2024-03-23T06:13:32;15.07;;;7.13;;
17842;SDS011;69286;48.222;16.332;2024-03-23T06:15:59;11.63;;;7.30;;
17842;SDS011;69286;48.222;16.332;2024-03-23T06:18:26;12.03;;;7.07;;
17842;SDS011;69286;48.222;16.332;2024-03-23T06:20:52;13.43;;;7.27;;
17842;SDS011;69286;48.222;16.332;2024-03-23T06:23:21;10.70;;;7.50;;
17842;SDS011;69286;48.222;16.332;2024-03-23T06:25:47;14.43;;;8.33;;
17842;SDS011;69286;48.222;16.332;2024-03-23T06:28:14;13.30;;;8.43;;
17842;SDS011;69286;48.222;16.332;2024-03-23T06:30:40;14.67;;;8.03;;
17842;SDS011;69286;48.222;16.332;2024-03-23T06:33:07;18.60;;;8.90;;
17842;SDS011;69286;48.222;16.332;2024-03-23T06:35:33;14.10;;;8.23;;
17842;SDS011;69286;48.222;16.332;2024-03-23T06:38:00;14.80;;;7.83;;
17842;SDS011;69286;48.222;16.332;2024-03-23T06:40:28;14.07;;;8.67;;
17842;SDS011;69286;48.222;16.332;2024-03-23T06:42:55;13.67;;;7.40;;
17842;SDS011;69286;48.222;16.332;2024-03-23T06:45:21;10.53;;;7.40;;
17842;SDS011;69286;48.222;16.332;2024-03-23T06:47:49;13.07;;;8.07;;
17842;SDS011;69286;48.222;16.332;2024-03-23T06:50:15;15.90;;;6.97;;
17842;SDS011;69286;48.222;16.332;2024-03-23T06:52:42;11.40;;;6.80;;
17842;SDS011;69286;48.222;16.332;2024-03-23T06:55:08;13.40;;;8.37;;
17842;SDS011;69286;48.222;16.332;2024-03-23T06:57:36;10.10;;;6.43;;
17842;SDS011;69286;48.222;16.332;2024-03-23T07:00:02;11.70;;;6.90;;
17842;SDS011;69286;48.222;16.332;2024-03-23T07:02:35;12.67;;;7.23;;
17842;SDS011;69286;48.222;16.332;2024-03-23T07:05:01;10.80;;;6.70;;
17842;SDS011;69286;48.222;16.332;2024-03-23T07:07:28;7.10;;;5.70;;
17842;SDS011;69286;48.222;16.332;2024-03-23T07:09:55;11.20;;;5.93;;
17842;SDS011;69286;48.222;16.332;2024-03-23T07:12:22;7.87;;;5.63;;
17842;SDS011;69286;48.222;16.332;2024-03-23T07:14:50;9.23;;;5.97;;
17842;SDS011;69286;48.222;16.332;2024-03-23T07:17:17;10.50;;;6.27;;
17842;SDS011;69286;48.222;16.332;2024-03-23T07:19:43;8.07;;;5.80;;
17842;SDS011;69286;48.222;16.332;2024-03-23T07:22:10;10.93;;;5.47;;
17842;SDS011;69286;48.222;16.332;2024-03-23T07:24:36;10.10;;;6.37;;
17842;SDS011;69286;48.222;16.332;2024-03-23T07:27:04;9.53;;;5.67;;
17842;SDS011;69286;48.222;16.332;2024-03-23T07:29:30;11.47;;;6.10;;
17842;SDS011;69286;48.222;16.332;2024-03-23T07:31:59;8.03;;;4.83;;
17842;SDS011;69286;48.222;16.332;2024-03-23T07:34:25;13.03;;;5.87;;
17842;SDS011;69286;48.222;16.332;2024-03-23T07:36:52;7.33;;;5.20;;
17842;SDS011;69286;48.222;16.332;2024-03-23T07:39:18;12.03;;;5.70;;
17842;SDS011;69286;48.222;16.332;2024-03-23T07:41:45;13.67;;;6.10;;
17842;SDS011;69286;48.222;16.332;2024-03-23T07:44:11;7.03;;;5.30;;
17842;SDS011;69286;48.222;16.332;2024-03-23T07:46:38;8.60;;;4.90;;
17842;SDS011;69286;48.222;16.332;2024-03-23T07:49:05;9.00;;;5.30;;
17842;SDS011;69286;48.222;16.332;2024-03-23T07:51:32;8.47;;;5.50;;
17842;SDS011;69286;48.222;16.332;2024-03-23T07:54:00;8.33;;;5.87;;
17842;SDS011;69286;48.222;16.332;2024-03-23T07:56:26;7.43;;;5.40;;
17842;SDS011;69286;48.222;16.332;2024-03-23T07:58:53;11.27;;;5.47;;
17842;SDS011;69286;48.222;16.332;2024-03-23T08:01:19;6.83;;;4.97;;
17842;SDS011;69286;48.222;16.332;2024-03-23T08:03:46;9.87;;;5.53;;
17842;SDS011;69286;48.222;16.332;2024-03-23T08:06:14;9.27;;;5.10;;
17842;SDS011;69286;48.222;16.332;2024-03-23T08:08:42;7.60;;;5.07;;
17842;SDS011;69286;48.222;16.332;2024-03-23T08:11:10;7.97;;;5.27;;
17842;SDS011;69286;48.222;16.332;2024-03-23T08:13:38;11.77;;;5.67;;
17842;SDS011;69286;48.222;16.332;2024-03-23T08:16:06;9.87;;;6.70;;
17842;SDS011;69286;48.222;16.332;2024-03-23T08:18:35;10.53;;;6.40;;
17842;SDS011;69286;48.222;16.332;2024-03-23T08:21:02;13.33;;;6.90;;
17842;SDS011;69286;48.222;16.332;2024-03-23T08:23:32;11.13;;;6.87;;
17842;SDS011;69286;48.222;16.332;2024-03-23T08:26:01;9.50;;;7.07;;
17842;SDS011;69286;48.222;16.332;2024-03-23T08:28:29;13.87;;;7.90;;
17842;SDS011;69286;48.222;16.332;2024-03-23T08:30:55;13.73;;;8.13;;
17842;SDS011;69286;48.222;16.332;2024-03-23T08:33:23;14.53;;;7.73;;
17842;SDS011;69286;48.222;16.332;2024-03-23T08:35:53;10.63;;;7.03;;
17842;SDS011;69286;48.222;16.332;2024-03-23T08:38:21;12.37;;;7.43;;
17842;SDS011;69286;48.222;16.332;2024-03-23T08:40:55;11.20;;;7.07;;
17842;SDS011;69286;48.222;16.332;2024-03-23T08:43:23;15.13;;;6.50;;
17842;SDS011;69286;48.222;16.332;2024-03-23T08:45:52;8.60;;;6.10;;
17842;SDS011;69286;48.222;16.332;2024-03-23T08:48:19;10.30;;;6.03;;
17842;SDS011;69286;48.222;16.332;2024-03-23T08:50:45;9.80;;;6.33;;
17842;SDS011;69286;48.222;16.332;2024-03-23T08:53:14;13.37;;;7.20;;
17842;SDS011;69286;48.222;16.332;2024-03-23T08:55:40;8.80;;;6.30;;
17842;SDS011;69286;48.222;16.332;2024-03-23T08:58:09;8.90;;;6.57;;
17842;SDS011;69286;48.222;16.332;2024-03-23T09:00:35;10.17;;;6.77;;
17842;SDS011;69286;48.222;16.332;2024-03-23T09:03:02;12.17;;;6.83;;
17842;SDS011;69286;48.222;16.332;2024-03-23T09:05:29;8.07;;;7.13;;
17842;SDS011;69286;48.222;16.332;2024-03-23T09:08:01;9.35;;;6.57;;
17842;SDS011;69286;48.222;16.332;2024-03-23T09:10:27;14.57;;;7.50;;
17842;SDS011;69286;48.222;16.332;2024-03-23T09:12:54;9.45;;;6.75;;
17842;SDS011;69286;48.222;16.332;2024-03-23T09:15:21;13.38;;;7.15;;
17842;SDS011;69286;48.222;16.332;2024-03-23T09:17:48;7.15;;;5.60;;
17842;SDS011;69286;48.222;16.332;2024-03-23T09:20:15;8.20;;;5.20;;
17842;SDS011;69286;48.222;16.332;2024-03-23T09:22:42;8.70;;;4.85;;
17842;SDS011;69286;48.222;16.332;2024-03-23T09:25:08;5.70;;;4.35;;
17842;SDS011;69286;48.222;16.332;2024-03-23T09:27:35;6.97;;;4.63;;
17842;SDS011;69286;48.222;16.332;2024-03-23T09:30:01;7.30;;;4.40;;
17842;SDS011;69286;48.222;16.332;2024-03-23T09:32:32;4.22;;;3.72;;
17842;SDS011;69286;48.222;16.332;2024-03-23T09:34:58;10.10;;;4.00;;
17842;SDS011;69286;48.222;16.332;2024-03-23T09:37:25;7.07;;;4.07;;
17842;SDS011;69286;48.222;16.332;2024-03-23T09:39:51;4.72;;;3.97;;
17842;SDS011;69286;48.222;16.332;2024-03-23T09:42:18;7.03;;;4.00;;
17842;SDS011;69286;48.222;16.332;2024-03-23T09:44:45;5.50;;;3.78;;
17842;SDS011;69286;48.222;16.332;2024-03-23T09:47:12;5.78;;;3.90;;
17842;SDS011;69286;48.222;16.332;2024-03-23T09:49:40;9.23;;;3.72;;
17842;SDS011;69286;48.222;16.332;2024-03-23T09:52:07;6.10;;;3.20;;
17842;SDS011;69286;48.222;16.332;2024-03-23T09:54:33;5.00;;;2.95;;
17842;SDS011;69286;48.222;16.332;2024-03-23T09:57:02;4.55;;;2.63;;
17842;SDS011;69286;48.222;16.332;2024-03-23T09:59:29;3.35;;;2.28;;
17842;SDS011;69286;48.222;16.332;2024-03-23T10:01:56;3.80;;;2.70;;
17842;SDS011;69286;48.222;16.332;2024-03-23T10:04:38;8.60;;;2.70;;
17842;SDS011;69286;48.222;16.332;2024-03-23T10:07:11;3.13;;;2.20;;
17842;SDS011;69286;48.222;16.332;2024-03-23T10:09:38;4.88;;;2.60;;
17842;SDS011;69286;48.222;16.332;2024-03-23T10:12:09;5.07;;;3.40;;
17842;SDS011;69286;48.222;16.332;2024-03-23T10:14:36;5.82;;;2.50;;
17842;SDS011;69286;48.222;16.332;2024-03-23T10:17:13;7.30;;;2.90;;
17842;SDS011;69286;48.222;16.332;2024-03-23T10:19:42;4.18;;;2.58;;
17842;SDS011;69286;48.222;16.332;2024-03-23T10:22:13;4.68;;;2.70;;
17842;SDS011;69286;48.222;16.332;2024-03-23T10:24:40;5.45;;;2.60;;
17842;SDS011;69286;48.222;16.332;2024-03-23T10:27:07;3.30;;;2.50;;
17842;SDS011;69286;48.222;16.332;2024-03-23T10:29:33;2.47;;;2.28;;
17842;SDS011;69286;48.222;16.332;2024-03-23T10:32:10;5.43;;;2.30;;
17842;SDS011;69286;48.222;16.332;2024-03-23T10:34:36;5.22;;;2.30;;
17842;SDS011;69286;48.222;16.332;2024-03-23T10:37:04;4.35;;;2.38;;
17842;SDS011;69286;48.222;16.332;2024-03-23T10:39:33;2.20;;;1.75;;
17842;SDS011;69286;48.222;16.332;2024-03-23T10:42:04;3.88;;;2.17;;
17842;SDS011;69286;48.222;16.332;2024-03-23T10:44:31;5.25;;;2.17;;
17842;SDS011;69286;48.222;16.332;2024-03-23T10:46:58;3.03;;;1.70;;
17842;SDS011;69286;48.222;16.332;2024-03-23T10:49:26;2.88;;;1.90;;
17842;SDS011;69286;48.222;16.332;2024-03-23T10:51:58;2.30;;;1.58;;
17842;SDS011;69286;48.222;16.332;2024-03-23T10:54:26;3.72;;;1.98;;
17842;SDS011;69286;48.222;16.332;2024-03-23T10:56:56;3.80;;;1.88;;
17842;SDS011;69286;48.222;16.332;2024-03-23T10:59:27;2.78;;;1.75;;
17842;SDS011;69286;48.222;16.332;2024-03-23T11:01:55;9.67;;;1.53;;
17842;SDS011;69286;48.222;16.332;2024-03-23T11:04:31;3.80;;;1.40;;
17842;SDS011;69286;48.222;16.332;2024-03-23T11:06:59;2.50;;;1.47;;
17842;SDS011;69286;48.222;16.332;2024-03-23T11:09:39;3.30;;;1.73;;
17842;SDS011;69286;48.222;16.332;2024-03-23T11:14:53;6.97;;;2.33;;
17842;SDS011;69286;48.222;16.332;2024-03-23T11:17:21;4.77;;;2.80;;
17842;SDS011;69286;48.222;16.332;2024-03-23T11:19:54;3.60;;;1.80;;
17842;SDS011;69286;48.222;16.332;2024-03-23T11:25:14;3.90;;;1.70;;
17842;SDS011;69286;48.222;16.332;2024-03-23T11:27:47;6.33;;;2.10;;
17842;SDS011;69286;48.222;16.332;2024-03-23T11:30:15;4.80;;;2.20;;
17842;SDS011;69286;48.222;16.332;2024-03-23T11:32:44;3.20;;;2.10;;
17842;SDS011;69286;48.222;16.332;2024-03-23T11:35:24;2.53;;;1.43;;
17842;SDS011;69286;48.222;16.332;2024-03-23T11:38:02;6.37;;;2.97;;
17842;SDS011;69286;48.222;16.332;2024-03-23T11:40:29;4.83;;;3.17;;
17842;SDS011;69286;48.222;16.332;2024-03-23T11:42:59;8.80;;;5.10;;
17842;SDS011;69286;48.222;16.332;2024-03-23T11:45:26;6.20;;;3.13;;
17842;SDS011;69286;48.222;16.332;2024-03-23T11:48:04;3.73;;;2.17;;
17842;SDS011;69286;48.222;16.332;2024-03-23T11:50:31;6.33;;;2.70;;
17842;SDS011;69286;48.222;16.332;2024-03-23T11:53:08;9.07;;;4.40;;
17842;SDS011;69286;48.222;16.332;2024-03-23T11:55:45;5.53;;;2.23;;
17842;SDS011;69286;48.222;16.332;2024-03-23T11:58:15;5.53;;;2.50;;
17842;SDS011;69286;48.222;16.332;2024-03-23T12:00:42;2.47;;;2.23;;
17842;SDS011;69286;48.222;16.332;2024-03-23T12:03:15;5.10;;;1.77;;
17842;SDS011;69286;48.222;16.332;2024-03-23T12:05:42;4.40;;;1.80;;
17842;SDS011;69286;48.222;16.332;2024-03-23T12:08:18;5.73;;;1.83;;
17842;SDS011;69286;48.222;16.332;2024-03-23T12:10:47;7.70;;;1.83;;
17842;SDS011;69286;48.222;16.332;2024-03-23T12:13:17;3.90;;;2.23;;
17842;SDS011;69286;48.222;16.332;2024-03-23T12:15:45;3.43;;;2.20;;
17842;SDS011;69286;48.222;16.332;2024-03-23T12:18:13;4.03;;;2.00;;
17842;SDS011;69286;48.222;16.332;2024-03-23T12:20:39;5.70;;;1.60;;
17842;SDS011;69286;48.222;16.332;2024-03-23T12:23:07;3.03;;;1.87;;
17842;SDS011;69286;48.222;16.332;2024-03-23T12:25:34;2.10;;;1.90;;
17842;SDS011;69286;48.222;16.332;2024-03-23T12:28:02;3.87;;;1.90;;
17842;SDS011;69286;48.222;16.332;2024-03-23T12:30:32;3.97;;;1.80;;
17842;SDS011;69286;48.222;16.332;2024-03-23T12:33:00;2.37;;;1.87;;
17842;SDS011;69286;48.222;16.332;2024-03-23T12:35:28;3.00;;;2.50;;
17842;SDS011;69286;48.222;16.332;2024-03-23T12:37:55;3.20;;;1.80;;
17842;SDS011;69286;48.222;16.332;2024-03-23T12:40:22;2.27;;;2.00;;
17842;SDS011;69286;48.222;16.332;2024-03-23T12:42:49;4.83;;;1.80;;
17842;SDS011;69286;48.222;16.332;2024-03-23T12:45:15;2.20;;;1.60;;
17842;SDS011;69286;48.222;16.332;2024-03-23T12:47:44;4.10;;;1.90;;
17842;SDS011;69286;48.222;16.332;2024-03-23T12:50:10;10.20;;;1.67;;
17842;SDS011;69286;48.222;16.332;2024-03-23T12:52:37;5.77;;;1.60;;
17842;SDS011;69286;48.222;16.332;2024-03-23T12:55:03;5.33;;;2.20;;
17842;SDS011;69286;48.222;16.332;2024-03-23T12:57:31;5.30;;;2.27;;
17842;SDS011;69286;48.222;16.332;2024-03-23T12:59:58;10.17;;;2.43;;
17842;SDS011;69286;48.222;16.332;2024-03-23T13:02:25;8.53;;;2.20;;
17842;SDS011;69286;48.222;16.332;2024-03-23T13:04:53;2.43;;;1.80;;
17842;SDS011;69286;48.222;16.332;2024-03-23T13:07:21;5.90;;;1.80;;
17842;SDS011;69286;48.222;16.332;2024-03-23T13:09:49;5.00;;;1.60;;
17842;SDS011;69286;48.222;16.332;2024-03-23T13:12:17;12.47;;;1.60;;
17842;SDS011;69286;48.222;16.332;2024-03-23T13:14:44;4.50;;;1.53;;
17842;SDS011;69286;48.222;16.332;2024-03-23T13:17:11;3.40;;;1.40;;
17842;SDS011;69286;48.222;16.332;2024-03-23T13:19:37;1.90;;;1.60;;
17842;SDS011;69286;48.222;16.332;2024-03-23T13:22:06;8.17;;;1.40;;
17842;SDS011;69286;48.222;16.332;2024-03-23T13:24:32;2.17;;;1.43;;
17842;SDS011;69286;48.222;16.332;2024-03-23T13:26:59;4.73;;;1.33;;
17842;SDS011;69286;48.222;16.332;2024-03-23T13:29:25;2.23;;;1.30;;
17842;SDS011;69286;48.222;16.332;2024-03-23T13:31:52;2.87;;;1.50;;
17842;SDS011;69286;48.222;16.332;2024-03-23T13:34:18;1.73;;;1.60;;
17842;SDS011;69286;48.222;16.332;2024-03-23T13:36:46;2.37;;;1.23;;
17842;SDS011;69286;48.222;16.332;2024-03-23T13:39:14;2.43;;;1.83;;
17842;SDS011;69286;48.222;16.332;2024-03-23T13:41:41;6.13;;;2.37;;
17842;SDS011;69286;48.222;16.332;2024-03-23T13:44:08;1.50;;;1.40;;
17842;SDS011;69286;48.222;16.332;2024-03-23T13:46:36;2.23;;;1.27;;
17842;SDS011;69286;48.222;16.332;2024-03-23T13:49:03;6.83;;;2.47;;
17842;SDS011;69286;48.222;16.332;2024-03-23T13:51:30;3.33;;;2.20;;
17842;SDS011;69286;48.222;16.332;2024-03-23T13:53:56;8.50;;;1.40;;
17842;SDS011;69286;48.222;16.332;2024-03-23T13:56:27;2.23;;;1.50;;
17842;SDS011;69286;48.222;16.332;2024-03-23T13:58:54;2.03;;;1.73;;
17842;SDS011;69286;48.222;16.332;2024-03-23T14:01:21;1.27;;;1.23;;
17842;SDS011;69286;48.222;16.332;2024-03-23T14:03:47;3.13;;;1.40;;
17842;SDS011;69286;48.222;16.332;2024-03-23T14:06:14;2.30;;;1.60;;
17842;SDS011;69286;48.222;16.332;2024-03-23T14:08:40;1.60;;;1.50;;
17842;SDS011;69286;48.222;16.332;2024-03-23T14:11:08;2.80;;;1.40;;
17842;SDS011;69286;48.222;16.332;2024-03-23T14:13:37;2.13;;;1.93;;
17842;SDS011;69286;48.222;16.332;2024-03-23T14:16:05;5.47;;;1.80;;
17842;SDS011;69286;48.222;16.332;2024-03-23T14:18:31;3.27;;;1.60;;
17842;SDS011;69286;48.222;16.332;2024-03-23T14:20:59;3.77;;;1.30;;
17842;SDS011;69286;48.222;16.332;2024-03-23T14:23:26;1.77;;;1.43;;
17842;SDS011;69286;48.222;16.332;2024-03-23T14:25:54;4.27;;;1.60;;
17842;SDS011;69286;48.222;16.332;2024-03-23T14:28:20;1.70;;;1.60;;
17842;SDS011;69286;48.222;16.332;2024-03-23T14:30:49;5.03;;;1.50;;
17842;SDS011;69286;48.222;16.332;2024-03-23T14:33:15;1.60;;;1.50;;
17842;SDS011;69286;48.222;16.332;2024-03-23T14:35:43;3.40;;;1.90;;
17842;SDS011;69286;48.222;16.332;2024-03-23T14:38:09;3.33;;;1.83;;
17842;SDS011;69286;48.222;16.332;2024-03-23T14:40:36;4.47;;;1.90;;
17842;SDS011;69286;48.222;16.332;2024-03-23T14:43:02;2.20;;;2.00;;
17842;SDS011;69286;48.222;16.332;2024-03-23T14:45:29;2.27;;;2.00;;
17842;SDS011;69286;48.222;16.332;2024-03-23T14:47:57;2.40;;;2.20;;
17842;SDS011;69286;48.222;16.332;2024-03-23T14:50:24;5.10;;;2.20;;
17842;SDS011;69286;48.222;16.332;2024-03-23T14:52:50;2.03;;;1.93;;
17842;SDS011;69286;48.222;16.332;2024-03-23T14:55:17;1.80;;;1.70;;
17842;SDS011;69286;48.222;16.332;2024-03-23T14:57:43;2.30;;;2.10;;
17842;SDS011;69286;48.222;16.332;2024-03-23T15:00:10;1.90;;;1.80;;
17842;SDS011;69286;48.222;16.332;2024-03-23T15:02:37;2.37;;;1.63;;
17842;SDS011;69286;48.222;16.332;2024-03-23T15:05:06;1.63;;;1.50;;
17842;SDS011;69286;48.222;16.332;2024-03-23T15:07:35;2.00;;;1.80;;
17842;SDS011;69286;48.222;16.332;2024-03-23T15:10:03;1.70;;;1.60;;
17842;SDS011;69286;48.222;16.332;2024-03-23T15:12:30;1.70;;;1.53;;
17842;SDS011;69286;48.222;16.332;2024-03-23T15:14:58;2.70;;;2.00;;
17842;SDS011;69286;48.222;16.332;2024-03-23T15:17:25;1.80;;;1.70;;
17842;SDS011;69286;48.222;16.332;2024-03-23T15:19:52;2.17;;;1.60;;
17842;SDS011;69286;48.222;16.332;2024-03-23T15:22:20;1.47;;;1.37;;
17842;SDS011;69286;48.222;16.332;2024-03-23T15:24:48;1.83;;;1.63;;
17842;SDS011;69286;48.222;16.332;2024-03-23T15:27:14;2.67;;;1.80;;
17842;SDS011;69286;48.222;16.332;2024-03-23T15:29:41;2.00;;;1.80;;
17842;SDS011;69286;48.222;16.332;2024-03-23T15:32:11;2.20;;;1.97;;
17842;SDS011;69286;48.222;16.332;2024-03-23T15:34:39;4.10;;;2.10;;